Observations for CARDIFF-WALES ARPT, United Kingdom (EGFF)

EGFF 260520Z AUTO 33005KT 0100 R30/0550 FG VV/// 16/16 Q1019
EGFF 260450Z AUTO 30005KT 0100 R30/0450 FG VV/// 16/16 Q1019
EGFF 260420Z AUTO 32005KT 0200 FG VV/// 16/16 Q1018 
EGFF 260350Z AUTO 31004KT 270V330 1800 BR OVC001 17/17 Q1019
EGFF 260320Z AUTO 28004KT 250V340 1300 BR OVC001 17/17 Q1019
EGFF 260250Z AUTO 29005KT 3000 BR OVC002 17/17 Q1019
EGFF 260220Z AUTO 29004KT 2500 BR OVC001 17/17 Q1019
EGFF 260150Z AUTO 29006KT 2500 BR OVC001 17/17 Q1019
EGFF 260120Z AUTO 30007KT 2800 BR OVC002 17/16 Q1019
EGFF 260050Z AUTO 30007KT 3400 BR OVC002 16/16 Q1019
EGFF 260020Z AUTO 31005KT 3300 BR OVC003 16/15 Q1019
EGFF 252350Z AUTO 28006KT 4300 BR BKN003 16/15 Q1019
EGFF 252320Z AUTO 29007KT 4800 BR SCT004 16/16 Q1019
EGFF 252250Z AUTO 30006KT 6000 OVC003 16/16 Q1019   
EGFF 252220Z AUTO 29009KT 7000 BKN005 16/16 Q1019   
EGFF 252150Z AUTO 29009KT 7000 SCT006 16/15 Q1019   
EGFF 252120Z AUTO 28008KT 8000 NCD 16/16 Q1019  
EGFF 252050Z AUTO 28009KT 9000 NCD 17/16 Q1020  
EGFF 252020Z AUTO 28009KT 9000 NCD 17/16 Q1019  
EGFF 251950Z AUTO 27008KT 9999 NCD 17/16 Q1019  
EGFF 251920Z AUTO 29008KT 9999 NCD 17/15 Q1019  
EGFF 251850Z AUTO 28008KT 9999 NCD 18/15 Q1019  
EGFF 251820Z AUTO 28009KT 9999 NCD 18/15 Q1019  
EGFF 251750Z AUTO 30012KT 9999 NCD 19/15 Q1019  
EGFF 251720Z AUTO 30012KT 9999 NCD 19/15 Q1019  
EGFF 251650Z AUTO 29011KT 9999 NCD 20/15 Q1018  
EGFF 251620Z AUTO 27010KT 9999 NCD 20/16 Q1018  
EGFF 251550Z AUTO 28009KT 9999 NCD 21/16 Q1018  
EGFF 251520Z AUTO 29009KT 9999 NCD 21/16 Q1018  
EGFF 251450Z AUTO 28009KT 9999 NCD 21/16 Q1018  
EGFF 251420Z AUTO 26009KT 9999 NCD 21/16 Q1018  
EGFF 251350Z AUTO 26008KT 240V300 9999 NCD 21/16 Q1018  
EGFF 251320Z AUTO 27008KT 9999 NCD 22/16 Q1018  
EGFF 251250Z AUTO 27009KT 9999 NCD 22/16 Q1018  
EGFF 251220Z AUTO 26008KT 220V290 9999 NCD 22/16 Q1018  
EGFF 251150Z AUTO 29009KT 9999 NCD 21/16 Q1018  
EGFF 251120Z AUTO 26010KT 9999 NCD 21/17 Q1018  
EGFF 251050Z AUTO 27010KT 240V300 9999 NCD 21/16 Q1018  
EGFF 251020Z AUTO 27010KT 9999 NCD 21/16 Q1018  
EGFF 250950Z AUTO 26008KT 230V300 9999 NCD 20/16 Q1018  
EGFF 250920Z 30007KT 240V330 9999 FEW014 20/16 Q1018
EGFF 250850Z 30007KT 270V330 9999 FEW010 20/17 Q1018
EGFF 250820Z 30008KT 9999 FEW010 19/17 Q1017
EGFF 250750Z 31007KT 9999 7000W FEW010 19/17 Q1017  
EGFF 250720Z AUTO 30008KT 9999 NCD 18/17 Q1017  
EGFF 250650Z AUTO 31006KT 4300 BR NCD 17/16 Q1017   
EGFF 250620Z AUTO 30006KT 6000 FEW001 16/15 Q1016   
EGFF 250550Z AUTO 31004KT 9999 NCD 16/13 Q1016  
EGFF 250520Z AUTO 28005KT 9999 NCD 16/13 Q1016  
EGFF 250450Z AUTO 07003KT 9999 NCD 18/13 Q1016